LFMN/NCE METAR and TAF weather

Enter ICAO airport designator
Station Type Date Time Source
LFMN METAR 2019/06/27 04:00 UTC NOAA

LFMN 270400Z 34009KT CAVOK 27/18 Q1020 NOSIG


Station Type Date Time Source
LFMN Decoded METAR 2019/06/27 04:00 UTC NOAA

Nice, France (LFMN) 43-39N 007-12E 10M
Jun 27, 2019 - 12:00 AM EDT / 2019.06.27 0400 UTC
Wind: from the NNW (340 degrees) at 10 MPH (9 KT):0
Visibility: greater than 7 mile(s):0
Temperature: 80 F (27 C)
Dew Point: 64 F (18 C)
Relative Humidity: 57%
Pressure (altimeter): 30.12 in. Hg (1020 hPa)
ob: LFMN 270400Z 34009KT CAVOK 27/18 Q1020 NOSIG
cycle: 4

Station Type Date Time Source
LFMN TAF 2019/06/27 03:24 UTC NOAA

TAF LFMN 270200Z 2703/2809 34010KT CAVOK
BECMG 2707/2709 15005KT PROB40
TEMPO 2716/2718 19010KT
BECMG 2718/2720 VRB05KT

Example: see airport list